AirNav  
 
 734 users online  

2O1 Gansner Field Airport
Quincy, California, USA


FAA INFORMATION EFFECTIVE 09 NOVEMBER 2017

Location

FAA Identifier: 2O1
Lat/Long: 39-56-38.1000N / 120-56-43.4000W
39-56.635000N / 120-56.723333W
39.9439167 / -120.9453889
(estimated)
Elevation: 3418.6 ft. / 1042 m (estimated)
Variation: 17E (1985)
From city: 1 mile N of QUINCY, CA
Time zone: UTC -8 (UTC -7 during Daylight Saving Time)
Zip code: 95971

Airport Operations

Airport use: Open to the public
Activation date: 12/1949
Control tower: no
ARTCC: OAKLAND CENTER
FSS: RANCHO MURIETA FLIGHT SERVICE STATION
NOTAMs facility: RIU (NOTAM-D service available)
Attendance: UNATNDD
Pattern altitude: 4418.6 ft. MSL
Wind indicator: lighted
Segmented circle: yes
Lights: ACTVT MIRL RWY 07/25 - CTAF.
Beacon: white-green (lighted land airport)
ROTG BCN LOCATED 2000 FT NORTH OF ARPT ON TOP OF HILL. SECONDARY WHITE BCN 3 MI SOUTH OF ARPT. Operates sunset to sunrise.

Airport Communications

CTAF/UNICOM: 122.7
WX AWOS-2: 135.600 (530-283-6528)

Airport Services

Fuel available: 100LL
24 HR 100LL FUEL BY CREDIT CARD.
Parking: tiedowns
Airframe service: NONE
Powerplant service: NONE
Bottled oxygen: NONE
Bulk oxygen: NONE

Runway Information

Runway 7/25

Dimensions: 4105 x 60 ft. / 1251 x 18 m
Surface: asphalt, in good condition
Weight bearing capacity: 
Single wheel: 12.5
Runway edge lights: medium intensity
RUNWAY 7  RUNWAY 25
Latitude: 39-56.588978N39-56.681228N
Longitude: 120-57.158440W120-56.288500W
Elevation: 3418.5 ft.3407.7 ft.
Gradient: 0.2%0.3% UP
Traffic pattern: leftright
Runway heading: 065 magnetic, 082 true245 magnetic, 262 true
Markings: basic, in good conditionbasic, in good condition
Visual slope indicator: 2-box VASI on left (3.00 degrees glide path)
Runway end identifier lights: nono
Touchdown point: yes, no lightsyes, no lights
Obstructions: 19 ft. road, 350 ft. from runway, 7:1 slope to clear
RWY 07 +19 FT ROAD 350 FT FM RWY 7 END 7:1 CLEARANCE SLOPE TO THLD.
none

Airport Ownership and Management from official FAA records

Ownership: Publicly-owned
Owner: COUNTY OF PLUMAS
198 ANDY'S WAY
QUINCY, CA 95971-7007
Phone 530-283-6299
Manager: DONY SAWCHUK
198 ANDY'S WAY
QUINCY, CA 95971-7007
Phone 530-283-6070
FACILITIES OFFICE IN QUINCY. FBO PHONE AT ARPT 530-283-2600.

Airport Operational Statistics

Aircraft based on the field: 27
Single engine airplanes: 25
Multi engine airplanes: 1
Ultralights: 1
    
Aircraft operations: avg 25/day *
47% local general aviation
46% transient general aviation
7% air taxi
1% military
* for 12-month period ending 31 December 2016

Additional Remarks

DUE TO PROXIMITY OF TERRAIN NRML OPNS ARE: FOR DEPS/TOUCH AND GO RWY 07. LDGS ON RWYS 07 AND 25.
ULTRALIGHTS ON AND INVOF ARPT.
RAPIDLY RISING TERRAIN WITH +100 FT TREES ON NORTH SIDE OF RY.
APRT RESTRICTED BY APRT OPER TO ACFT WITH MAX CERT TKOF WEIGHT OF 12,500 LBS OR LESS.
FIREFIGHTING ACFT INVOF ARPT MAY-OCT.
FOR CD CTC NORCAL APCH AT 916-361-6874.

Instrument Procedures

There are no published instrument procedures at 2O1.

Some nearby airports with instrument procedures:

O02 - Nervino Airport (28 nm E)
KSVE - Susanville Municipal Airport (31 nm NE)
KAHC - Amedee Army Airfield (41 nm NE)
KOVE - Oroville Municipal Airport (42 nm SW)
KCIC - Chico Municipal Airport (43 nm W)
 
Loc | Ops | Rwys | IFR | FBO | Links
Com | Nav | Svcs | Stats | Notes


 
Area around 2O1 (Gansner Field Airport)
 
Road maps at: MapQuest Bing Google
 
Aerial photo
WARNING: Photo may not be current or correct
Aerial photo of 2O1 (Gansner Field Airport)
Photo by Daron Lynch, RA
Photo taken 26-Jul-2009
from 8500 ft.

Do you have a better or more recent aerial photo of Gansner Field Airport that you would like to share? If so, please send us your photo.

 
Sectional chart

 
Airport distance calculator
Flying to Gansner Field Airport? Find the distance to fly.

From to 2O1

Sunrise and sunset
Times for 22-Nov-2017
 Local
(UTC-8)
 Zulu
(UTC)
Morning civil twilight06:2814:28
Sunrise06:5814:58
Sunset16:4200:42
Evening civil twilight17:1201:12

Current date and time
Zulu (UTC)  22-Nov-2017 12:51:42
Local (UTC-8)  22-Nov-2017 04:51:42
 
METAR
KSVE 
31nm NE 
221235Z AUTO 27004KT 1/4SM FG VV002 03/03 A3032 RMK AO2
KOVE 
41nm SW 
221234Z AUTO 26004KT 3/4SM BR VV001 09/09 A3017 RMK AO2 T00940094
KBLU 
41nm S 
221152Z AUTO 11004KT 10SM CLR 14/02 A3034 RMK AO2 SLP210 T01440022 10150 20128 58004 TSNO
KCIC 
42nm W 
221235Z AUTO 00000KT 1 1/4SM OVC002 08/08 A3017 RMK AO1
KGOO 
43nm S 
221240Z AUTO 11006KT 10SM CLR 18/03 A3023 RMK AO1
TAF
NOTAMs
Click for the latest NOTAMs
NOTAMs are issued by the DoD/FAA and will open in a separate window not controlled by AirNav.

 

 
 

FBO, Fuel Providers, and Aircraft Ground Support

  
 Business Name 
 
 Contact 
 
 Services / Description 
 
Fuel Prices
 
Comments
  
Plumas County (automated fuel pump) 530-283-6299
no information available

If you are affiliated with Plumas County (automated fuel pump) and would like to show here your services, contact info, web link, logo, and more, click here
100LL
SS $4.64 
 Updated 15-Nov-2017
 
   1 read write
SS=Self service
Update Fuel Prices
 

Would you like to see your business listed on this page?

 If your business provides an interesting product or service to pilots, flight crews, aircraft, or users of the Gansner Field Airport, you should consider listing it here.  To start the listing process, click on the button below
 
Add a business
 

Other Pages about Gansner Field Airport

Update a link
 
Copyright © AirNav, LLC. All rights reserved. Privacy Policy  Contact